sensor_id;sensor_type;location;lat;lon;timestamp;temperature;humidity
10192;DHT22;17580;50.850;4.504;2023-04-21T00:02:04;6.80;34.50
10192;DHT22;17580;50.850;4.504;2023-04-21T00:04:31;6.90;34.40
10192;DHT22;17580;50.850;4.504;2023-04-21T00:06:58;7.00;34.20
10192;DHT22;17580;50.850;4.504;2023-04-21T00:09:27;7.10;34.40
10192;DHT22;17580;50.850;4.504;2023-04-21T00:11:54;7.20;34.70
10192;DHT22;17580;50.850;4.504;2023-04-21T00:14:21;7.30;35.20
10192;DHT22;17580;50.850;4.504;2023-04-21T00:16:48;7.30;34.00
10192;DHT22;17580;50.850;4.504;2023-04-21T00:19:17;7.40;34.60
10192;DHT22;17580;50.850;4.504;2023-04-21T00:21:44;7.40;34.70
10192;DHT22;17580;50.850;4.504;2023-04-21T00:24:11;7.40;34.50
10192;DHT22;17580;50.850;4.504;2023-04-21T00:26:40;7.40;35.00
10192;DHT22;17580;50.850;4.504;2023-04-21T00:29:07;7.60;34.80
10192;DHT22;17580;50.850;4.504;2023-04-21T00:31:34;7.60;35.70
10192;DHT22;17580;50.850;4.504;2023-04-21T00:34:01;7.60;34.50
10192;DHT22;17580;50.850;4.504;2023-04-21T00:36:28;7.70;35.50
10192;DHT22;17580;50.850;4.504;2023-04-21T00:38:55;7.80;34.90
10192;DHT22;17580;50.850;4.504;2023-04-21T00:41:22;7.80;35.70
10192;DHT22;17580;50.850;4.504;2023-04-21T00:44:04;7.80;37.60
10192;DHT22;17580;50.850;4.504;2023-04-21T00:46:32;7.80;36.80
10192;DHT22;17580;50.850;4.504;2023-04-21T00:49:02;7.90;37.10
10192;DHT22;17580;50.850;4.504;2023-04-21T00:51:29;7.90;37.60
10192;DHT22;17580;50.850;4.504;2023-04-21T00:53:58;8.00;38.20
10192;DHT22;17580;50.850;4.504;2023-04-21T00:56:25;7.90;41.70
10192;DHT22;17580;50.850;4.504;2023-04-21T00:58:54;7.90;41.90
10192;DHT22;17580;50.850;4.504;2023-04-21T01:01:22;7.90;43.70
10192;DHT22;17580;50.850;4.504;2023-04-21T01:03:49;7.90;44.70
10192;DHT22;17580;50.850;4.504;2023-04-21T01:06:17;7.90;45.90
10192;DHT22;17580;50.850;4.504;2023-04-21T01:08:45;7.90;47.60
10192;DHT22;17580;50.850;4.504;2023-04-21T01:11:12;7.90;47.60
10192;DHT22;17580;50.850;4.504;2023-04-21T01:13:39;7.90;49.50
10192;DHT22;17580;50.850;4.504;2023-04-21T01:16:07;7.90;49.40
10192;DHT22;17580;50.850;4.504;2023-04-21T01:18:35;8.00;49.50
10192;DHT22;17580;50.850;4.504;2023-04-21T01:21:02;7.90;50.40
10192;DHT22;17580;50.850;4.504;2023-04-21T01:23:31;7.90;51.30
10192;DHT22;17580;50.850;4.504;2023-04-21T01:25:58;7.90;50.80
10192;DHT22;17580;50.850;4.504;2023-04-21T01:28:25;8.00;51.80
10192;DHT22;17580;50.850;4.504;2023-04-21T01:30:52;7.90;53.80
10192;DHT22;17580;50.850;4.504;2023-04-21T01:33:20;8.00;52.70
10192;DHT22;17580;50.850;4.504;2023-04-21T01:35:47;8.00;53.60
10192;DHT22;17580;50.850;4.504;2023-04-21T01:38:15;7.90;54.10
10192;DHT22;17580;50.850;4.504;2023-04-21T01:40:47;7.90;54.60
10192;DHT22;17580;50.850;4.504;2023-04-21T01:43:16;7.90;55.50
10192;DHT22;17580;50.850;4.504;2023-04-21T01:45:43;7.90;55.50
10192;DHT22;17580;50.850;4.504;2023-04-21T01:48:10;8.00;56.10
10192;DHT22;17580;50.850;4.504;2023-04-21T01:50:37;8.00;56.80
10192;DHT22;17580;50.850;4.504;2023-04-21T01:53:04;8.00;55.90
10192;DHT22;17580;50.850;4.504;2023-04-21T01:55:31;8.00;57.00
10192;DHT22;17580;50.850;4.504;2023-04-21T01:58:00;8.10;57.30
10192;DHT22;17580;50.850;4.504;2023-04-21T02:00:27;8.10;56.60
10192;DHT22;17580;50.850;4.504;2023-04-21T02:02:54;8.10;57.00
10192;DHT22;17580;50.850;4.504;2023-04-21T02:05:21;8.10;57.50
10192;DHT22;17580;50.850;4.504;2023-04-21T02:07:48;8.10;57.20
10192;DHT22;17580;50.850;4.504;2023-04-21T02:10:15;8.10;58.00
10192;DHT22;17580;50.850;4.504;2023-04-21T02:12:42;8.00;57.90
10192;DHT22;17580;50.850;4.504;2023-04-21T02:15:11;7.90;58.60
10192;DHT22;17580;50.850;4.504;2023-04-21T02:17:38;7.90;59.20
10192;DHT22;17580;50.850;4.504;2023-04-21T02:20:08;7.90;59.90
10192;DHT22;17580;50.850;4.504;2023-04-21T02:22:36;7.90;60.50
10192;DHT22;17580;50.850;4.504;2023-04-21T02:25:04;7.90;60.70
10192;DHT22;17580;50.850;4.504;2023-04-21T02:27:31;7.90;60.40
10192;DHT22;17580;50.850;4.504;2023-04-21T02:29:58;8.00;60.10
10192;DHT22;17580;50.850;4.504;2023-04-21T02:32:27;8.00;61.20
10192;DHT22;17580;50.850;4.504;2023-04-21T02:34:54;8.10;60.10
10192;DHT22;17580;50.850;4.504;2023-04-21T02:37:21;8.10;60.40
10192;DHT22;17580;50.850;4.504;2023-04-21T02:39:48;8.10;60.50
10192;DHT22;17580;50.850;4.504;2023-04-21T02:42:15;8.10;60.70
10192;DHT22;17580;50.850;4.504;2023-04-21T02:44:42;8.00;61.10
10192;DHT22;17580;50.850;4.504;2023-04-21T02:47:09;8.00;61.10
10192;DHT22;17580;50.850;4.504;2023-04-21T02:49:41;8.10;61.30
10192;DHT22;17580;50.850;4.504;2023-04-21T02:52:09;8.00;60.90
10192;DHT22;17580;50.850;4.504;2023-04-21T02:54:36;8.00;61.20
10192;DHT22;17580;50.850;4.504;2023-04-21T02:57:03;8.10;60.80
10192;DHT22;17580;50.850;4.504;2023-04-21T02:59:30;8.00;60.90
10192;DHT22;17580;50.850;4.504;2023-04-21T03:01:57;8.00;61.10
10192;DHT22;17580;50.850;4.504;2023-04-21T03:04:24;8.10;61.40
10192;DHT22;17580;50.850;4.504;2023-04-21T03:06:52;8.00;62.00
10192;DHT22;17580;50.850;4.504;2023-04-21T03:09:20;8.00;61.90
10192;DHT22;17580;50.850;4.504;2023-04-21T03:11:47;8.00;62.20
10192;DHT22;17580;50.850;4.504;2023-04-21T03:14:14;8.00;62.90
10192;DHT22;17580;50.850;4.504;2023-04-21T03:16:41;8.00;62.10
10192;DHT22;17580;50.850;4.504;2023-04-21T03:19:08;8.00;62.70
10192;DHT22;17580;50.850;4.504;2023-04-21T03:21:36;8.00;62.10
10192;DHT22;17580;50.850;4.504;2023-04-21T03:24:06;8.10;62.90
10192;DHT22;17580;50.850;4.504;2023-04-21T03:26:33;8.10;62.20
10192;DHT22;17580;50.850;4.504;2023-04-21T03:29:01;8.20;62.20
10192;DHT22;17580;50.850;4.504;2023-04-21T03:31:27;8.10;61.50
10192;DHT22;17580;50.850;4.504;2023-04-21T03:33:54;8.10;61.10
10192;DHT22;17580;50.850;4.504;2023-04-21T03:36:21;8.10;60.90
10192;DHT22;17580;50.850;4.504;2023-04-21T03:38:48;8.00;62.50
10192;DHT22;17580;50.850;4.504;2023-04-21T03:41:17;8.10;61.80
10192;DHT22;17580;50.850;4.504;2023-04-21T03:43:44;8.00;62.10
10192;DHT22;17580;50.850;4.504;2023-04-21T03:46:17;8.00;62.30
10192;DHT22;17580;50.850;4.504;2023-04-21T03:48:44;8.00;61.70
10192;DHT22;17580;50.850;4.504;2023-04-21T03:51:12;7.90;62.00
10192;DHT22;17580;50.850;4.504;2023-04-21T03:53:39;7.90;63.10
10192;DHT22;17580;50.850;4.504;2023-04-21T03:56:06;7.90;62.30
10192;DHT22;17580;50.850;4.504;2023-04-21T03:58:35;7.90;62.10
10192;DHT22;17580;50.850;4.504;2023-04-21T04:01:04;7.90;62.00
10192;DHT22;17580;50.850;4.504;2023-04-21T04:03:31;7.80;62.40
10192;DHT22;17580;50.850;4.504;2023-04-21T04:05:58;7.70;63.10
10192;DHT22;17580;50.850;4.504;2023-04-21T04:08:27;7.60;62.90
10192;DHT22;17580;50.850;4.504;2023-04-21T04:10:54;7.60;63.00
10192;DHT22;17580;50.850;4.504;2023-04-21T04:13:21;7.50;64.00
10192;DHT22;17580;50.850;4.504;2023-04-21T04:15:50;7.40;63.80
10192;DHT22;17580;50.850;4.504;2023-04-21T04:18:17;7.40;64.40
10192;DHT22;17580;50.850;4.504;2023-04-21T04:20:45;7.40;63.60
10192;DHT22;17580;50.850;4.504;2023-04-21T04:23:12;7.50;64.00
10192;DHT22;17580;50.850;4.504;2023-04-21T04:25:39;7.60;63.50
10192;DHT22;17580;50.850;4.504;2023-04-21T04:28:07;7.60;62.60
10192;DHT22;17580;50.850;4.504;2023-04-21T04:30:34;7.70;63.00
10192;DHT22;17580;50.850;4.504;2023-04-21T04:33:03;7.70;62.30
10192;DHT22;17580;50.850;4.504;2023-04-21T04:35:30;7.60;63.50
10192;DHT22;17580;50.850;4.504;2023-04-21T04:37:57;7.60;63.50
10192;DHT22;17580;50.850;4.504;2023-04-21T04:40:24;7.60;63.50
10192;DHT22;17580;50.850;4.504;2023-04-21T04:42:51;7.50;63.80
10192;DHT22;17580;50.850;4.504;2023-04-21T04:45:19;7.50;64.40
10192;DHT22;17580;50.850;4.504;2023-04-21T04:47:48;7.40;64.70
10192;DHT22;17580;50.850;4.504;2023-04-21T04:50:16;7.30;64.30
10192;DHT22;17580;50.850;4.504;2023-04-21T04:52:43;7.30;64.60
10192;DHT22;17580;50.850;4.504;2023-04-21T04:55:11;7.30;64.50
10192;DHT22;17580;50.850;4.504;2023-04-21T04:57:39;7.30;64.50
10192;DHT22;17580;50.850;4.504;2023-04-21T05:00:07;7.40;63.90
10192;DHT22;17580;50.850;4.504;2023-04-21T05:02:36;7.50;64.80
10192;DHT22;17580;50.850;4.504;2023-04-21T05:05:04;7.60;63.90
10192;DHT22;17580;50.850;4.504;2023-04-21T05:07:33;7.60;63.90
10192;DHT22;17580;50.850;4.504;2023-04-21T05:10:01;7.60;63.90
10192;DHT22;17580;50.850;4.504;2023-04-21T05:12:29;7.60;63.50
10192;DHT22;17580;50.850;4.504;2023-04-21T05:14:56;7.60;63.40
10192;DHT22;17580;50.850;4.504;2023-04-21T05:17:23;7.50;62.70
10192;DHT22;17580;50.850;4.504;2023-04-21T05:19:51;7.50;63.20
10192;DHT22;17580;50.850;4.504;2023-04-21T05:22:18;7.50;63.20
10192;DHT22;17580;50.850;4.504;2023-04-21T05:24:47;7.50;62.90
10192;DHT22;17580;50.850;4.504;2023-04-21T05:27:14;7.50;63.20
10192;DHT22;17580;50.850;4.504;2023-04-21T05:29:41;7.50;61.60
10192;DHT22;17580;50.850;4.504;2023-04-21T05:32:08;7.60;62.20
10192;DHT22;17580;50.850;4.504;2023-04-21T05:34:36;7.60;62.10
10192;DHT22;17580;50.850;4.504;2023-04-21T05:37:03;7.60;62.00
10192;DHT22;17580;50.850;4.504;2023-04-21T05:39:30;7.60;61.90
10192;DHT22;17580;50.850;4.504;2023-04-21T05:41:59;7.60;61.70
10192;DHT22;17580;50.850;4.504;2023-04-21T05:44:27;7.50;61.90
10192;DHT22;17580;50.850;4.504;2023-04-21T05:46:54;7.50;61.40
10192;DHT22;17580;50.850;4.504;2023-04-21T05:49:21;7.50;61.30
10192;DHT22;17580;50.850;4.504;2023-04-21T05:51:48;7.60;61.70
10192;DHT22;17580;50.850;4.504;2023-04-21T05:54:15;7.70;61.30
10192;DHT22;17580;50.850;4.504;2023-04-21T05:56:42;7.70;61.50
10192;DHT22;17580;50.850;4.504;2023-04-21T05:59:10;7.70;61.60
10192;DHT22;17580;50.850;4.504;2023-04-21T06:01:37;7.70;62.60
10192;DHT22;17580;50.850;4.504;2023-04-21T06:04:04;7.70;61.80
10192;DHT22;17580;50.850;4.504;2023-04-21T06:06:31;7.70;62.30
10192;DHT22;17580;50.850;4.504;2023-04-21T06:08:58;7.80;61.00
10192;DHT22;17580;50.850;4.504;2023-04-21T06:11:25;7.80;62.40
10192;DHT22;17580;50.850;4.504;2023-04-21T06:13:52;7.90;60.90
10192;DHT22;17580;50.850;4.504;2023-04-21T06:16:24;7.90;59.60
10192;DHT22;17580;50.850;4.504;2023-04-21T06:18:51;8.10;60.40
10192;DHT22;17580;50.850;4.504;2023-04-21T06:21:18;8.10;61.50
10192;DHT22;17580;50.850;4.504;2023-04-21T06:23:45;8.20;60.20
10192;DHT22;17580;50.850;4.504;2023-04-21T06:26:12;8.30;60.00
10192;DHT22;17580;50.850;4.504;2023-04-21T06:28:39;8.40;60.60
10192;DHT22;17580;50.850;4.504;2023-04-21T06:31:06;8.60;59.20
10192;DHT22;17580;50.850;4.504;2023-04-21T06:33:35;8.60;58.50
10192;DHT22;17580;50.850;4.504;2023-04-21T06:36:03;8.60;59.10
10192;DHT22;17580;50.850;4.504;2023-04-21T06:38:30;8.70;58.30
10192;DHT22;17580;50.850;4.504;2023-04-21T06:40:57;8.80;58.30
10192;DHT22;17580;50.850;4.504;2023-04-21T06:43:24;9.00;57.20
10192;DHT22;17580;50.850;4.504;2023-04-21T06:45:51;9.40;55.70
10192;DHT22;17580;50.850;4.504;2023-04-21T06:48:18;9.80;51.40
10192;DHT22;17580;50.850;4.504;2023-04-21T06:50:47;10.00;51.50
10192;DHT22;17580;50.850;4.504;2023-04-21T06:53:14;10.10;51.10
10192;DHT22;17580;50.850;4.504;2023-04-21T06:55:42;10.00;51.80
10192;DHT22;17580;50.850;4.504;2023-04-21T06:58:09;10.60;48.70
10192;DHT22;17580;50.850;4.504;2023-04-21T07:00:37;11.30;47.10
10192;DHT22;17580;50.850;4.504;2023-04-21T07:03:04;11.70;44.10
10192;DHT22;17580;50.850;4.504;2023-04-21T07:05:31;11.70;42.60
10192;DHT22;17580;50.850;4.504;2023-04-21T07:08:00;11.80;43.70
10192;DHT22;17580;50.850;4.504;2023-04-21T07:10:27;11.30;42.90
10192;DHT22;17580;50.850;4.504;2023-04-21T07:12:54;10.90;43.30
10192;DHT22;17580;50.850;4.504;2023-04-21T07:15:21;10.70;43.20
10192;DHT22;17580;50.850;4.504;2023-04-21T07:17:48;10.50;43.50
10192;DHT22;17580;50.850;4.504;2023-04-21T07:20:16;10.50;45.00
10192;DHT22;17580;50.850;4.504;2023-04-21T07:22:43;10.40;45.40
10192;DHT22;17580;50.850;4.504;2023-04-21T07:25:11;10.50;42.80
10192;DHT22;17580;50.850;4.504;2023-04-21T07:27:39;10.70;45.00
10192;DHT22;17580;50.850;4.504;2023-04-21T07:30:07;10.70;43.00
10192;DHT22;17580;50.850;4.504;2023-04-21T07:32:34;10.90;43.70
10192;DHT22;17580;50.850;4.504;2023-04-21T07:35:03;11.10;41.50
10192;DHT22;17580;50.850;4.504;2023-04-21T07:37:30;11.10;40.00
10192;DHT22;17580;50.850;4.504;2023-04-21T07:39:57;11.10;39.70
10192;DHT22;17580;50.850;4.504;2023-04-21T07:42:26;11.20;39.20
10192;DHT22;17580;50.850;4.504;2023-04-21T07:44:53;11.20;40.70
10192;DHT22;17580;50.850;4.504;2023-04-21T07:47:22;11.20;42.20
10192;DHT22;17580;50.850;4.504;2023-04-21T07:49:49;11.20;39.10
10192;DHT22;17580;50.850;4.504;2023-04-21T07:52:16;11.60;40.50
10192;DHT22;17580;50.850;4.504;2023-04-21T07:54:42;12.00;37.90
10192;DHT22;17580;50.850;4.504;2023-04-21T07:57:09;12.30;39.90
10192;DHT22;17580;50.850;4.504;2023-04-21T07:59:38;12.80;36.10
10192;DHT22;17580;50.850;4.504;2023-04-21T08:02:05;13.40;36.90
10192;DHT22;17580;50.850;4.504;2023-04-21T08:04:32;13.90;33.10
10192;DHT22;17580;50.850;4.504;2023-04-21T08:06:59;14.20;31.40
10192;DHT22;17580;50.850;4.504;2023-04-21T08:09:27;14.00;30.00
10192;DHT22;17580;50.850;4.504;2023-04-21T08:11:54;13.90;33.30
10192;DHT22;17580;50.850;4.504;2023-04-21T08:14:21;14.40;29.90
10192;DHT22;17580;50.850;4.504;2023-04-21T08:16:50;14.70;29.00
10192;DHT22;17580;50.850;4.504;2023-04-21T08:19:17;14.70;27.40
10192;DHT22;17580;50.850;4.504;2023-04-21T08:21:44;15.10;26.70
10192;DHT22;17580;50.850;4.504;2023-04-21T08:24:11;14.90;25.40
10192;DHT22;17580;50.850;4.504;2023-04-21T08:26:38;15.20;26.40
10192;DHT22;17580;50.850;4.504;2023-04-21T08:29:05;15.30;25.40
10192;DHT22;17580;50.850;4.504;2023-04-21T08:31:35;15.20;25.50
10192;DHT22;17580;50.850;4.504;2023-04-21T08:34:03;15.00;25.10
10192;DHT22;17580;50.850;4.504;2023-04-21T08:36:31;14.90;25.90
10192;DHT22;17580;50.850;4.504;2023-04-21T08:38:59;14.80;28.10
10192;DHT22;17580;50.850;4.504;2023-04-21T08:41:26;14.80;26.50
10192;DHT22;17580;50.850;4.504;2023-04-21T08:43:53;14.80;26.10
10192;DHT22;17580;50.850;4.504;2023-04-21T08:46:20;15.20;24.30
10192;DHT22;17580;50.850;4.504;2023-04-21T08:48:48;15.70;23.30
10192;DHT22;17580;50.850;4.504;2023-04-21T08:51:21;15.90;23.50
10192;DHT22;17580;50.850;4.504;2023-04-21T08:53:48;16.30;22.80
10192;DHT22;17580;50.850;4.504;2023-04-21T08:56:16;16.70;20.60
10192;DHT22;17580;50.850;4.504;2023-04-21T08:58:43;17.50;20.60
10192;DHT22;17580;50.850;4.504;2023-04-21T09:01:10;18.20;18.70
10192;DHT22;17580;50.850;4.504;2023-04-21T09:03:37;18.70;19.20
10192;DHT22;17580;50.850;4.504;2023-04-21T09:06:06;19.50;17.40
10192;DHT22;17580;50.850;4.504;2023-04-21T09:08:38;20.00;14.90
10192;DHT22;17580;50.850;4.504;2023-04-21T09:11:07;20.50;13.10
10192;DHT22;17580;50.850;4.504;2023-04-21T09:13:35;20.70;12.40
10192;DHT22;17580;50.850;4.504;2023-04-21T09:16:04;21.20;11.70
10192;DHT22;17580;50.850;4.504;2023-04-21T09:18:31;21.60;10.80
10192;DHT22;17580;50.850;4.504;2023-04-21T09:21:08;21.70;7.60
10192;DHT22;17580;50.850;4.504;2023-04-21T09:23:41;21.70;4.50
10192;DHT22;17580;50.850;4.504;2023-04-21T09:26:08;22.00;5.80
10192;DHT22;17580;50.850;4.504;2023-04-21T09:28:35;21.70;7.10
10192;DHT22;17580;50.850;4.504;2023-04-21T09:31:02;22.00;1.90
10192;DHT22;17580;50.850;4.504;2023-04-21T09:33:32;22.00;1.90
10192;DHT22;17580;50.850;4.504;2023-04-21T09:36:00;22.40;3.40
10192;DHT22;17580;50.850;4.504;2023-04-21T09:38:28;22.80;1.20
10192;DHT22;17580;50.850;4.504;2023-04-21T09:40:57;22.90;1.00
10192;DHT22;17580;50.850;4.504;2023-04-21T09:43:24;22.80;1.00
10192;DHT22;17580;50.850;4.504;2023-04-21T09:45:52;23.00;1.00
10192;DHT22;17580;50.850;4.504;2023-04-21T09:48:21;23.10;1.00
10192;DHT22;17580;50.850;4.504;2023-04-21T09:50:53;22.70;1.00
10192;DHT22;17580;50.850;4.504;2023-04-21T09:53:21;23.50;1.00
10192;DHT22;17580;50.850;4.504;2023-04-21T09:55:50;23.90;1.00
10192;DHT22;17580;50.850;4.504;2023-04-21T09:58:23;23.90;1.00
10192;DHT22;17580;50.850;4.504;2023-04-21T10:00:55;24.10;1.00
10192;DHT22;17580;50.850;4.504;2023-04-21T10:03:26;24.40;1.00
10192;DHT22;17580;50.850;4.504;2023-04-21T10:05:54;24.20;1.00
10192;DHT22;17580;50.850;4.504;2023-04-21T10:08:21;24.20;1.00
10192;DHT22;17580;50.850;4.504;2023-04-21T10:10:49;24.60;1.00
10192;DHT22;17580;50.850;4.504;2023-04-21T10:13:17;25.10;1.00
10192;DHT22;17580;50.850;4.504;2023-04-21T10:15:46;24.90;1.00
10192;DHT22;17580;50.850;4.504;2023-04-21T10:18:15;24.70;1.00
10192;DHT22;17580;50.850;4.504;2023-04-21T10:20:53;24.50;1.00
10192;DHT22;17580;50.850;4.504;2023-04-21T10:23:27;24.50;1.00
10192;DHT22;17580;50.850;4.504;2023-04-21T10:26:00;24.90;1.00
10192;DHT22;17580;50.850;4.504;2023-04-21T10:28:41;24.40;1.00
10192;DHT22;17580;50.850;4.504;2023-04-21T10:31:24;24.30;1.00
10192;DHT22;17580;50.850;4.504;2023-04-21T10:34:19;24.40;1.00
10192;DHT22;17580;50.850;4.504;2023-04-21T10:37:10;24.30;1.00
10192;DHT22;17580;50.850;4.504;2023-04-21T10:39:53;24.40;1.00
10192;DHT22;17580;50.850;4.504;2023-04-21T10:42:24;24.30;1.00
10192;DHT22;17580;50.850;4.504;2023-04-21T10:47:45;24.10;1.00
10192;DHT22;17580;50.850;4.504;2023-04-21T10:50:19;23.70;1.00
10192;DHT22;17580;50.850;4.504;2023-04-21T10:52:52;23.80;1.00
10192;DHT22;17580;50.850;4.504;2023-04-21T10:55:20;24.00;1.00
10192;DHT22;17580;50.850;4.504;2023-04-21T10:57:48;24.30;1.00
10192;DHT22;17580;50.850;4.504;2023-04-21T11:00:17;24.20;1.00
10192;DHT22;17580;50.850;4.504;2023-04-21T11:02:54;24.10;1.00
10192;DHT22;17580;50.850;4.504;2023-04-21T11:05:30;24.30;1.00
10192;DHT22;17580;50.850;4.504;2023-04-21T11:08:07;24.60;1.00
10192;DHT22;17580;50.850;4.504;2023-04-21T11:10:53;24.00;1.00
10192;DHT22;17580;50.850;4.504;2023-04-21T11:13:21;24.00;1.00
10192;DHT22;17580;50.850;4.504;2023-04-21T11:16:05;24.20;1.00
10192;DHT22;17580;50.850;4.504;2023-04-21T11:18:39;25.00;1.00
10192;DHT22;17580;50.850;4.504;2023-04-21T11:21:14;25.30;1.00
10192;DHT22;17580;50.850;4.504;2023-04-21T11:23:50;25.30;1.00
10192;DHT22;17580;50.850;4.504;2023-04-21T11:26:17;25.80;1.00
10192;DHT22;17580;50.850;4.504;2023-04-21T11:28:47;25.50;1.00
10192;DHT22;17580;50.850;4.504;2023-04-21T11:31:15;25.70;1.00
10192;DHT22;17580;50.850;4.504;2023-04-21T11:33:43;24.90;1.00
10192;DHT22;17580;50.850;4.504;2023-04-21T11:36:10;24.30;1.00
10192;DHT22;17580;50.850;4.504;2023-04-21T11:38:38;24.30;1.00
10192;DHT22;17580;50.850;4.504;2023-04-21T11:41:06;24.00;1.00
10192;DHT22;17580;50.850;4.504;2023-04-21T11:43:34;24.30;1.00
10192;DHT22;17580;50.850;4.504;2023-04-21T11:46:17;24.70;1.00
10192;DHT22;17580;50.850;4.504;2023-04-21T11:48:57;24.60;1.00
10192;DHT22;17580;50.850;4.504;2023-04-21T11:51:24;25.10;1.00
10192;DHT22;17580;50.850;4.504;2023-04-21T11:53:52;24.80;1.00
10192;DHT22;17580;50.850;4.504;2023-04-21T11:56:20;25.30;1.00
10192;DHT22;17580;50.850;4.504;2023-04-21T11:58:49;25.30;1.00
10192;DHT22;17580;50.850;4.504;2023-04-21T12:01:16;24.80;1.00
10192;DHT22;17580;50.850;4.504;2023-04-21T12:03:51;25.10;1.00
10192;DHT22;17580;50.850;4.504;2023-04-21T12:06:22;25.10;1.00
10192;DHT22;17580;50.850;4.504;2023-04-21T12:08:55;25.20;1.00
10192;DHT22;17580;50.850;4.504;2023-04-21T12:11:23;25.10;1.00
10192;DHT22;17580;50.850;4.504;2023-04-21T12:13:50;25.30;1.00
10192;DHT22;17580;50.850;4.504;2023-04-21T12:16:18;25.20;1.00
10192;DHT22;17580;50.850;4.504;2023-04-21T12:18:47;24.60;1.00
10192;DHT22;17580;50.850;4.504;2023-04-21T12:21:15;24.40;1.00
10192;DHT22;17580;50.850;4.504;2023-04-21T12:23:42;24.50;1.00
10192;DHT22;17580;50.850;4.504;2023-04-21T12:26:10;24.00;1.00
10192;DHT22;17580;50.850;4.504;2023-04-21T12:28:38;24.10;1.00
10192;DHT22;17580;50.850;4.504;2023-04-21T12:31:05;24.10;1.00
10192;DHT22;17580;50.850;4.504;2023-04-21T12:33:32;24.60;1.00
10192;DHT22;17580;50.850;4.504;2023-04-21T12:35:59;25.20;1.00
10192;DHT22;17580;50.850;4.504;2023-04-21T12:38:27;25.80;1.00
10192;DHT22;17580;50.850;4.504;2023-04-21T12:40:54;25.40;1.00
10192;DHT22;17580;50.850;4.504;2023-04-21T12:43:21;25.10;1.00
10192;DHT22;17580;50.850;4.504;2023-04-21T12:45:48;24.60;1.00
10192;DHT22;17580;50.850;4.504;2023-04-21T12:48:17;24.50;1.00
10192;DHT22;17580;50.850;4.504;2023-04-21T12:50:44;24.80;1.00
10192;DHT22;17580;50.850;4.504;2023-04-21T12:53:12;24.60;1.00
10192;DHT22;17580;50.850;4.504;2023-04-21T12:55:40;24.70;1.00
10192;DHT22;17580;50.850;4.504;2023-04-21T12:58:07;24.70;1.00
10192;DHT22;17580;50.850;4.504;2023-04-21T13:00:35;24.60;1.00
10192;DHT22;17580;50.850;4.504;2023-04-21T13:03:02;24.70;1.00
10192;DHT22;17580;50.850;4.504;2023-04-21T13:05:29;24.60;1.00
10192;DHT22;17580;50.850;4.504;2023-04-21T13:07:57;24.30;1.00
10192;DHT22;17580;50.850;4.504;2023-04-21T13:10:24;24.60;1.00
10192;DHT22;17580;50.850;4.504;2023-04-21T13:12:52;24.20;1.00
10192;DHT22;17580;50.850;4.504;2023-04-21T13:15:19;23.80;1.00
10192;DHT22;17580;50.850;4.504;2023-04-21T13:17:46;23.10;1.00
10192;DHT22;17580;50.850;4.504;2023-04-21T13:20:13;22.60;1.00
10192;DHT22;17580;50.850;4.504;2023-04-21T13:22:43;22.20;1.00
10192;DHT22;17580;50.850;4.504;2023-04-21T13:25:10;22.10;1.00
10192;DHT22;17580;50.850;4.504;2023-04-21T13:27:37;21.70;1.00
10192;DHT22;17580;50.850;4.504;2023-04-21T13:30:08;21.60;1.00
10192;DHT22;17580;50.850;4.504;2023-04-21T13:32:35;21.30;1.00
10192;DHT22;17580;50.850;4.504;2023-04-21T13:35:03;21.30;1.00
10192;DHT22;17580;50.850;4.504;2023-04-21T13:37:33;21.40;1.00
10192;DHT22;17580;50.850;4.504;2023-04-21T13:40:00;21.70;1.00
10192;DHT22;17580;50.850;4.504;2023-04-21T13:42:27;22.20;1.00
10192;DHT22;17580;50.850;4.504;2023-04-21T13:44:54;22.20;1.00
10192;DHT22;17580;50.850;4.504;2023-04-21T13:47:23;22.10;1.00
10192;DHT22;17580;50.850;4.504;2023-04-21T13:49:50;21.70;1.00
10192;DHT22;17580;50.850;4.504;2023-04-21T13:52:17;21.20;1.00
10192;DHT22;17580;50.850;4.504;2023-04-21T13:54:44;20.90;1.00
10192;DHT22;17580;50.850;4.504;2023-04-21T13:57:11;20.50;1.00
10192;DHT22;17580;50.850;4.504;2023-04-21T13:59:38;20.40;1.00
10192;DHT22;17580;50.850;4.504;2023-04-21T14:02:06;20.20;1.00
10192;DHT22;17580;50.850;4.504;2023-04-21T14:04:35;20.40;1.00
10192;DHT22;17580;50.850;4.504;2023-04-21T14:07:02;20.60;1.00
10192;DHT22;17580;50.850;4.504;2023-04-21T14:09:30;20.50;1.00
10192;DHT22;17580;50.850;4.504;2023-04-21T14:11:57;20.40;1.00
10192;DHT22;17580;50.850;4.504;2023-04-21T14:14:24;20.20;1.00
10192;DHT22;17580;50.850;4.504;2023-04-21T14:16:51;20.20;1.00
10192;DHT22;17580;50.850;4.504;2023-04-21T14:19:18;20.40;1.00
10192;DHT22;17580;50.850;4.504;2023-04-21T14:21:47;20.60;1.00
10192;DHT22;17580;50.850;4.504;2023-04-21T14:24:14;20.40;1.00
10192;DHT22;17580;50.850;4.504;2023-04-21T14:26:41;20.50;1.00
10192;DHT22;17580;50.850;4.504;2023-04-21T14:29:08;20.30;1.00
10192;DHT22;17580;50.850;4.504;2023-04-21T14:31:35;20.00;1.00
10192;DHT22;17580;50.850;4.504;2023-04-21T14:34:02;19.90;1.00
10192;DHT22;17580;50.850;4.504;2023-04-21T14:36:29;19.90;1.00
10192;DHT22;17580;50.850;4.504;2023-04-21T14:38:58;20.00;1.00
10192;DHT22;17580;50.850;4.504;2023-04-21T14:41:25;20.10;1.00
10192;DHT22;17580;50.850;4.504;2023-04-21T14:43:52;19.90;1.00
10192;DHT22;17580;50.850;4.504;2023-04-21T14:46:21;20.10;1.00
10192;DHT22;17580;50.850;4.504;2023-04-21T14:48:48;19.90;1.00
10192;DHT22;17580;50.850;4.504;2023-04-21T14:51:15;19.70;1.00
10192;DHT22;17580;50.850;4.504;2023-04-21T14:53:43;19.40;1.00
10192;DHT22;17580;50.850;4.504;2023-04-21T14:56:12;19.20;1.00
10192;DHT22;17580;50.850;4.504;2023-04-21T14:58:40;19.20;1.00
10192;DHT22;17580;50.850;4.504;2023-04-21T15:01:07;19.20;1.00
10192;DHT22;17580;50.850;4.504;2023-04-21T15:03:35;19.40;1.00
10192;DHT22;17580;50.850;4.504;2023-04-21T15:06:02;19.60;1.00
10192;DHT22;17580;50.850;4.504;2023-04-21T15:08:29;19.70;1.00
10192;DHT22;17580;50.850;4.504;2023-04-21T15:10:56;19.40;1.00
10192;DHT22;17580;50.850;4.504;2023-04-21T15:13:25;19.00;1.00
10192;DHT22;17580;50.850;4.504;2023-04-21T15:15:52;18.90;1.00
10192;DHT22;17580;50.850;4.504;2023-04-21T15:18:19;18.60;1.00
10192;DHT22;17580;50.850;4.504;2023-04-21T15:20:46;18.50;1.00
10192;DHT22;17580;50.850;4.504;2023-04-21T15:23:14;18.70;1.00
10192;DHT22;17580;50.850;4.504;2023-04-21T15:25:41;18.70;1.00
10192;DHT22;17580;50.850;4.504;2023-04-21T15:28:08;18.70;1.00
10192;DHT22;17580;50.850;4.504;2023-04-21T15:30:37;18.70;1.00
10192;DHT22;17580;50.850;4.504;2023-04-21T15:33:04;18.80;1.00
10192;DHT22;17580;50.850;4.504;2023-04-21T15:35:31;18.70;1.00
10192;DHT22;17580;50.850;4.504;2023-04-21T15:37:58;18.70;1.00
10192;DHT22;17580;50.850;4.504;2023-04-21T15:40:25;18.80;1.00
10192;DHT22;17580;50.850;4.504;2023-04-21T15:42:52;19.00;1.00
10192;DHT22;17580;50.850;4.504;2023-04-21T15:45:19;19.00;1.00
10192;DHT22;17580;50.850;4.504;2023-04-21T15:47:47;18.90;1.00
10192;DHT22;17580;50.850;4.504;2023-04-21T15:50:14;18.60;1.00
10192;DHT22;17580;50.850;4.504;2023-04-21T15:52:41;18.40;1.00